sensor_id;sensor_type;location;lat;lon;timestamp;temperature;humidity
34279;DHT22;20538;51.528;9.942;2023-07-31T00:00:27;16.40;99.90
34279;DHT22;20538;51.528;9.942;2023-07-31T00:02:54;16.40;99.90
34279;DHT22;20538;51.528;9.942;2023-07-31T00:05:20;16.40;99.90
34279;DHT22;20538;51.528;9.942;2023-07-31T00:07:45;16.40;99.90
34279;DHT22;20538;51.528;9.942;2023-07-31T00:10:11;16.30;99.90
34279;DHT22;20538;51.528;9.942;2023-07-31T00:12:38;16.30;99.90
34279;DHT22;20538;51.528;9.942;2023-07-31T00:15:06;16.30;99.90
34279;DHT22;20538;51.528;9.942;2023-07-31T00:17:31;16.30;99.90
34279;DHT22;20538;51.528;9.942;2023-07-31T00:19:57;16.20;99.90
34279;DHT22;20538;51.528;9.942;2023-07-31T00:22:22;16.20;99.90
34279;DHT22;20538;51.528;9.942;2023-07-31T00:24:48;16.20;99.90
34279;DHT22;20538;51.528;9.942;2023-07-31T00:27:14;16.30;99.90
34279;DHT22;20538;51.528;9.942;2023-07-31T00:29:39;16.30;99.90
34279;DHT22;20538;51.528;9.942;2023-07-31T00:32:05;16.30;99.90
34279;DHT22;20538;51.528;9.942;2023-07-31T00:34:31;16.30;99.90
34279;DHT22;20538;51.528;9.942;2023-07-31T00:36:57;16.30;99.90
34279;DHT22;20538;51.528;9.942;2023-07-31T00:39:22;16.30;99.90
34279;DHT22;20538;51.528;9.942;2023-07-31T00:41:48;16.30;99.90
34279;DHT22;20538;51.528;9.942;2023-07-31T00:44:13;16.30;99.90
34279;DHT22;20538;51.528;9.942;2023-07-31T00:46:39;16.30;99.90
34279;DHT22;20538;51.528;9.942;2023-07-31T00:49:05;16.30;99.90
34279;DHT22;20538;51.528;9.942;2023-07-31T00:51:31;16.30;99.90
34279;DHT22;20538;51.528;9.942;2023-07-31T00:53:58;16.30;99.90
34279;DHT22;20538;51.528;9.942;2023-07-31T00:56:24;16.40;99.90
34279;DHT22;20538;51.528;9.942;2023-07-31T00:58:50;16.40;99.90
34279;DHT22;20538;51.528;9.942;2023-07-31T01:01:16;16.40;99.90
34279;DHT22;20538;51.528;9.942;2023-07-31T01:03:42;16.30;99.90
34279;DHT22;20538;51.528;9.942;2023-07-31T01:06:31;16.30;99.90
34279;DHT22;20538;51.528;9.942;2023-07-31T01:12:03;16.30;99.90
34279;DHT22;20538;51.528;9.942;2023-07-31T01:14:30;16.30;99.90
34279;DHT22;20538;51.528;9.942;2023-07-31T01:16:55;16.30;99.90
34279;DHT22;20538;51.528;9.942;2023-07-31T01:19:23;16.30;99.90
34279;DHT22;20538;51.528;9.942;2023-07-31T01:24:48;16.40;99.90
34279;DHT22;20538;51.528;9.942;2023-07-31T01:27:23;16.30;99.90
34279;DHT22;20538;51.528;9.942;2023-07-31T01:29:57;16.30;99.90
34279;DHT22;20538;51.528;9.942;2023-07-31T01:32:25;16.40;99.90
34279;DHT22;20538;51.528;9.942;2023-07-31T01:34:53;16.40;99.90
34279;DHT22;20538;51.528;9.942;2023-07-31T01:37:19;16.40;99.90
34279;DHT22;20538;51.528;9.942;2023-07-31T01:39:45;16.40;99.90
34279;DHT22;20538;51.528;9.942;2023-07-31T01:42:10;16.40;99.90
34279;DHT22;20538;51.528;9.942;2023-07-31T01:44:36;16.40;99.90
34279;DHT22;20538;51.528;9.942;2023-07-31T01:47:02;16.40;99.90
34279;DHT22;20538;51.528;9.942;2023-07-31T01:49:27;16.40;99.90
34279;DHT22;20538;51.528;9.942;2023-07-31T01:51:53;16.40;99.90
34279;DHT22;20538;51.528;9.942;2023-07-31T01:54:18;16.40;99.90
34279;DHT22;20538;51.528;9.942;2023-07-31T01:56:44;16.40;99.90
34279;DHT22;20538;51.528;9.942;2023-07-31T01:59:09;16.40;99.90
34279;DHT22;20538;51.528;9.942;2023-07-31T02:01:35;16.40;99.90
34279;DHT22;20538;51.528;9.942;2023-07-31T02:04:01;16.40;99.90
34279;DHT22;20538;51.528;9.942;2023-07-31T02:06:26;16.50;99.90
34279;DHT22;20538;51.528;9.942;2023-07-31T02:08:52;16.40;99.90
34279;DHT22;20538;51.528;9.942;2023-07-31T02:11:18;16.40;99.90
34279;DHT22;20538;51.528;9.942;2023-07-31T02:13:43;16.40;99.90
34279;DHT22;20538;51.528;9.942;2023-07-31T02:16:09;16.50;99.90
34279;DHT22;20538;51.528;9.942;2023-07-31T02:18:35;16.40;99.90
34279;DHT22;20538;51.528;9.942;2023-07-31T02:21:00;16.50;99.90
34279;DHT22;20538;51.528;9.942;2023-07-31T02:23:26;16.50;99.90
34279;DHT22;20538;51.528;9.942;2023-07-31T02:25:51;16.50;99.90
34279;DHT22;20538;51.528;9.942;2023-07-31T02:28:17;16.50;99.90
34279;DHT22;20538;51.528;9.942;2023-07-31T02:30:46;16.50;99.90
34279;DHT22;20538;51.528;9.942;2023-07-31T02:33:11;16.50;99.90
34279;DHT22;20538;51.528;9.942;2023-07-31T02:35:37;16.60;99.90
34279;DHT22;20538;51.528;9.942;2023-07-31T02:38:03;16.60;99.90
34279;DHT22;20538;51.528;9.942;2023-07-31T02:40:28;16.60;99.90
34279;DHT22;20538;51.528;9.942;2023-07-31T02:42:54;16.60;99.90
34279;DHT22;20538;51.528;9.942;2023-07-31T02:45:20;16.60;99.90
34279;DHT22;20538;51.528;9.942;2023-07-31T02:47:45;16.60;99.90
34279;DHT22;20538;51.528;9.942;2023-07-31T02:50:11;16.60;99.90
34279;DHT22;20538;51.528;9.942;2023-07-31T02:52:36;16.50;99.90
34279;DHT22;20538;51.528;9.942;2023-07-31T02:55:02;16.50;99.90
34279;DHT22;20538;51.528;9.942;2023-07-31T02:57:28;16.40;99.90
34279;DHT22;20538;51.528;9.942;2023-07-31T02:59:53;16.30;99.90
34279;DHT22;20538;51.528;9.942;2023-07-31T03:02:19;16.30;99.90
34279;DHT22;20538;51.528;9.942;2023-07-31T03:04:44;16.40;99.90
34279;DHT22;20538;51.528;9.942;2023-07-31T03:07:10;16.40;99.90
34279;DHT22;20538;51.528;9.942;2023-07-31T03:09:36;16.30;99.90
34279;DHT22;20538;51.528;9.942;2023-07-31T03:12:01;16.30;99.90
34279;DHT22;20538;51.528;9.942;2023-07-31T03:14:27;16.30;99.90
34279;DHT22;20538;51.528;9.942;2023-07-31T03:16:53;16.30;99.90
34279;DHT22;20538;51.528;9.942;2023-07-31T03:19:19;16.30;99.90
34279;DHT22;20538;51.528;9.942;2023-07-31T03:21:45;16.30;99.90
34279;DHT22;20538;51.528;9.942;2023-07-31T03:24:10;16.40;99.90
34279;DHT22;20538;51.528;9.942;2023-07-31T03:26:37;16.40;99.90
34279;DHT22;20538;51.528;9.942;2023-07-31T03:29:06;16.40;99.90
34279;DHT22;20538;51.528;9.942;2023-07-31T03:31:32;16.40;99.90
34279;DHT22;20538;51.528;9.942;2023-07-31T03:33:58;16.40;99.90
34279;DHT22;20538;51.528;9.942;2023-07-31T03:36:23;16.40;99.90
34279;DHT22;20538;51.528;9.942;2023-07-31T03:38:49;16.40;99.90
34279;DHT22;20538;51.528;9.942;2023-07-31T03:41:14;16.40;99.90
34279;DHT22;20538;51.528;9.942;2023-07-31T03:43:40;16.40;99.90
34279;DHT22;20538;51.528;9.942;2023-07-31T03:46:06;16.40;99.90
34279;DHT22;20538;51.528;9.942;2023-07-31T03:48:31;16.40;99.90
34279;DHT22;20538;51.528;9.942;2023-07-31T03:50:57;16.30;99.90
34279;DHT22;20538;51.528;9.942;2023-07-31T03:53:22;16.40;99.90
34279;DHT22;20538;51.528;9.942;2023-07-31T03:55:48;16.40;99.90
34279;DHT22;20538;51.528;9.942;2023-07-31T03:58:14;16.40;99.90
34279;DHT22;20538;51.528;9.942;2023-07-31T04:00:40;16.40;99.90
34279;DHT22;20538;51.528;9.942;2023-07-31T04:03:06;16.40;99.90
34279;DHT22;20538;51.528;9.942;2023-07-31T04:05:32;16.40;99.90
34279;DHT22;20538;51.528;9.942;2023-07-31T04:07:58;16.30;99.90
34279;DHT22;20538;51.528;9.942;2023-07-31T04:10:23;16.40;99.90
34279;DHT22;20538;51.528;9.942;2023-07-31T04:12:49;16.40;99.90
34279;DHT22;20538;51.528;9.942;2023-07-31T04:15:14;16.40;99.90
34279;DHT22;20538;51.528;9.942;2023-07-31T04:17:40;16.40;99.90
34279;DHT22;20538;51.528;9.942;2023-07-31T04:20:06;16.40;99.90
34279;DHT22;20538;51.528;9.942;2023-07-31T04:22:32;16.40;99.90
34279;DHT22;20538;51.528;9.942;2023-07-31T04:24:58;16.40;99.90
34279;DHT22;20538;51.528;9.942;2023-07-31T04:27:23;16.40;99.90
34279;DHT22;20538;51.528;9.942;2023-07-31T04:29:49;16.50;99.90
34279;DHT22;20538;51.528;9.942;2023-07-31T04:32:14;16.50;99.90
34279;DHT22;20538;51.528;9.942;2023-07-31T04:34:43;16.50;99.90
34279;DHT22;20538;51.528;9.942;2023-07-31T04:37:09;16.50;99.90
34279;DHT22;20538;51.528;9.942;2023-07-31T04:39:34;16.50;99.90
34279;DHT22;20538;51.528;9.942;2023-07-31T04:42:00;16.60;99.90
34279;DHT22;20538;51.528;9.942;2023-07-31T04:44:26;16.50;99.90
34279;DHT22;20538;51.528;9.942;2023-07-31T04:46:51;16.60;99.90
34279;DHT22;20538;51.528;9.942;2023-07-31T04:49:17;16.60;99.90
34279;DHT22;20538;51.528;9.942;2023-07-31T04:51:42;16.60;99.90
34279;DHT22;20538;51.528;9.942;2023-07-31T04:54:08;16.60;99.90
34279;DHT22;20538;51.528;9.942;2023-07-31T04:56:34;16.60;99.90
34279;DHT22;20538;51.528;9.942;2023-07-31T04:58:59;16.60;99.90
34279;DHT22;20538;51.528;9.942;2023-07-31T05:01:25;16.60;99.90
34279;DHT22;20538;51.528;9.942;2023-07-31T05:03:51;16.70;99.90
34279;DHT22;20538;51.528;9.942;2023-07-31T05:06:16;16.70;99.90
34279;DHT22;20538;51.528;9.942;2023-07-31T05:08:42;16.80;99.90
34279;DHT22;20538;51.528;9.942;2023-07-31T05:11:08;16.80;99.90
34279;DHT22;20538;51.528;9.942;2023-07-31T05:13:33;16.80;99.90
34279;DHT22;20538;51.528;9.942;2023-07-31T05:15:59;16.90;99.90
34279;DHT22;20538;51.528;9.942;2023-07-31T05:18:24;16.80;99.90
34279;DHT22;20538;51.528;9.942;2023-07-31T05:20:50;16.90;99.90
34279;DHT22;20538;51.528;9.942;2023-07-31T05:23:16;16.90;99.90
34279;DHT22;20538;51.528;9.942;2023-07-31T05:25:41;16.90;99.90
34279;DHT22;20538;51.528;9.942;2023-07-31T05:28:07;17.00;99.90
34279;DHT22;20538;51.528;9.942;2023-07-31T05:30:32;17.00;99.90
34279;DHT22;20538;51.528;9.942;2023-07-31T05:32:58;17.00;99.90
34279;DHT22;20538;51.528;9.942;2023-07-31T05:35:24;17.00;99.90
34279;DHT22;20538;51.528;9.942;2023-07-31T05:37:49;17.00;99.90
34279;DHT22;20538;51.528;9.942;2023-07-31T05:40:15;17.10;99.90
34279;DHT22;20538;51.528;9.942;2023-07-31T05:42:40;17.10;99.90
34279;DHT22;20538;51.528;9.942;2023-07-31T05:45:07;17.10;99.90
34279;DHT22;20538;51.528;9.942;2023-07-31T05:47:33;17.10;99.90
34279;DHT22;20538;51.528;9.942;2023-07-31T05:49:59;17.20;99.90
34279;DHT22;20538;51.528;9.942;2023-07-31T05:52:24;17.20;99.90
34279;DHT22;20538;51.528;9.942;2023-07-31T05:54:50;17.20;99.90
34279;DHT22;20538;51.528;9.942;2023-07-31T05:57:16;17.30;99.90
34279;DHT22;20538;51.528;9.942;2023-07-31T05:59:41;17.40;99.90
34279;DHT22;20538;51.528;9.942;2023-07-31T06:02:07;17.40;99.90
34279;DHT22;20538;51.528;9.942;2023-07-31T06:04:33;17.50;99.90
34279;DHT22;20538;51.528;9.942;2023-07-31T06:06:58;17.50;99.90
34279;DHT22;20538;51.528;9.942;2023-07-31T06:09:24;17.50;99.90
34279;DHT22;20538;51.528;9.942;2023-07-31T06:11:51;17.50;99.90
34279;DHT22;20538;51.528;9.942;2023-07-31T06:14:17;17.40;99.90
34279;DHT22;20538;51.528;9.942;2023-07-31T06:16:43;17.40;99.90
34279;DHT22;20538;51.528;9.942;2023-07-31T06:19:09;17.40;99.90
34279;DHT22;20538;51.528;9.942;2023-07-31T06:21:35;17.50;99.90
34279;DHT22;20538;51.528;9.942;2023-07-31T06:24:03;17.60;99.90
34279;DHT22;20538;51.528;9.942;2023-07-31T06:26:29;17.80;99.90
34279;DHT22;20538;51.528;9.942;2023-07-31T06:28:54;17.90;99.90
34279;DHT22;20538;51.528;9.942;2023-07-31T06:31:20;17.90;99.90
34279;DHT22;20538;51.528;9.942;2023-07-31T06:33:49;17.90;99.90
34279;DHT22;20538;51.528;9.942;2023-07-31T06:36:14;17.80;99.90
34279;DHT22;20538;51.528;9.942;2023-07-31T06:38:40;17.80;99.90
34279;DHT22;20538;51.528;9.942;2023-07-31T06:41:06;17.80;99.90
34279;DHT22;20538;51.528;9.942;2023-07-31T06:43:31;17.70;99.90
34279;DHT22;20538;51.528;9.942;2023-07-31T06:45:57;17.70;99.90
34279;DHT22;20538;51.528;9.942;2023-07-31T06:48:22;17.70;99.90
34279;DHT22;20538;51.528;9.942;2023-07-31T06:50:48;17.70;99.90
34279;DHT22;20538;51.528;9.942;2023-07-31T06:53:14;17.80;99.90
34279;DHT22;20538;51.528;9.942;2023-07-31T06:55:39;17.70;99.90
34279;DHT22;20538;51.528;9.942;2023-07-31T06:58:05;17.80;99.90
34279;DHT22;20538;51.528;9.942;2023-07-31T07:00:31;17.70;99.90
34279;DHT22;20538;51.528;9.942;2023-07-31T07:02:57;17.80;99.90
34279;DHT22;20538;51.528;9.942;2023-07-31T07:05:23;17.80;99.90
34279;DHT22;20538;51.528;9.942;2023-07-31T07:07:50;17.80;99.90
34279;DHT22;20538;51.528;9.942;2023-07-31T07:10:18;17.80;99.90
34279;DHT22;20538;51.528;9.942;2023-07-31T07:12:44;17.80;99.90
34279;DHT22;20538;51.528;9.942;2023-07-31T07:15:10;17.70;99.90
34279;DHT22;20538;51.528;9.942;2023-07-31T07:17:35;17.70;99.90
34279;DHT22;20538;51.528;9.942;2023-07-31T07:20:01;17.80;99.90
34279;DHT22;20538;51.528;9.942;2023-07-31T07:22:27;17.80;99.90
34279;DHT22;20538;51.528;9.942;2023-07-31T07:24:53;17.90;99.90
34279;DHT22;20538;51.528;9.942;2023-07-31T07:27:21;17.90;99.90
34279;DHT22;20538;51.528;9.942;2023-07-31T07:29:46;17.90;99.90
34279;DHT22;20538;51.528;9.942;2023-07-31T07:32:12;17.80;99.90
34279;DHT22;20538;51.528;9.942;2023-07-31T07:34:38;17.80;99.90
34279;DHT22;20538;51.528;9.942;2023-07-31T07:37:04;17.80;99.90
34279;DHT22;20538;51.528;9.942;2023-07-31T07:39:30;17.60;99.90
34279;DHT22;20538;51.528;9.942;2023-07-31T07:41:55;17.60;99.90
34279;DHT22;20538;51.528;9.942;2023-07-31T07:44:21;17.70;99.90
34279;DHT22;20538;51.528;9.942;2023-07-31T07:46:47;17.70;99.90
34279;DHT22;20538;51.528;9.942;2023-07-31T07:49:13;17.70;99.90
34279;DHT22;20538;51.528;9.942;2023-07-31T07:51:39;17.60;99.90
34279;DHT22;20538;51.528;9.942;2023-07-31T07:54:05;17.50;99.90
34279;DHT22;20538;51.528;9.942;2023-07-31T07:56:32;17.40;99.90
34279;DHT22;20538;51.528;9.942;2023-07-31T07:58:58;17.40;99.90
34279;DHT22;20538;51.528;9.942;2023-07-31T08:01:24;17.40;99.90
34279;DHT22;20538;51.528;9.942;2023-07-31T08:03:50;17.70;99.90
34279;DHT22;20538;51.528;9.942;2023-07-31T08:06:15;18.00;99.90
34279;DHT22;20538;51.528;9.942;2023-07-31T08:08:42;18.10;99.90
34279;DHT22;20538;51.528;9.942;2023-07-31T08:11:07;18.10;99.90
34279;DHT22;20538;51.528;9.942;2023-07-31T08:13:33;18.20;99.90
34279;DHT22;20538;51.528;9.942;2023-07-31T08:15:58;18.30;99.90
34279;DHT22;20538;51.528;9.942;2023-07-31T08:18:24;18.50;99.90
34279;DHT22;20538;51.528;9.942;2023-07-31T08:20:50;18.70;99.90
34279;DHT22;20538;51.528;9.942;2023-07-31T08:23:15;18.50;99.90
34279;DHT22;20538;51.528;9.942;2023-07-31T08:25:42;18.60;99.90
34279;DHT22;20538;51.528;9.942;2023-07-31T08:28:07;18.60;99.90
34279;DHT22;20538;51.528;9.942;2023-07-31T08:30:33;18.80;99.90
34279;DHT22;20538;51.528;9.942;2023-07-31T08:32:59;19.10;99.90
34279;DHT22;20538;51.528;9.942;2023-07-31T08:35:26;19.10;99.90
34279;DHT22;20538;51.528;9.942;2023-07-31T08:37:53;19.10;99.90
34279;DHT22;20538;51.528;9.942;2023-07-31T08:40:19;19.10;99.90
34279;DHT22;20538;51.528;9.942;2023-07-31T08:42:49;19.10;99.90
34279;DHT22;20538;51.528;9.942;2023-07-31T08:45:16;18.90;99.90
34279;DHT22;20538;51.528;9.942;2023-07-31T08:47:47;18.70;99.90
34279;DHT22;20538;51.528;9.942;2023-07-31T08:50:15;18.60;99.90
34279;DHT22;20538;51.528;9.942;2023-07-31T08:52:40;18.60;99.90
34279;DHT22;20538;51.528;9.942;2023-07-31T08:55:07;18.60;99.90
34279;DHT22;20538;51.528;9.942;2023-07-31T08:57:38;18.50;99.90
34279;DHT22;20538;51.528;9.942;2023-07-31T09:00:05;18.40;99.90
34279;DHT22;20538;51.528;9.942;2023-07-31T09:02:38;18.50;99.90
34279;DHT22;20538;51.528;9.942;2023-07-31T09:05:07;18.70;99.90
34279;DHT22;20538;51.528;9.942;2023-07-31T09:07:37;18.90;99.90
34279;DHT22;20538;51.528;9.942;2023-07-31T09:10:04;19.10;99.90
34279;DHT22;20538;51.528;9.942;2023-07-31T09:12:30;19.20;99.90
34279;DHT22;20538;51.528;9.942;2023-07-31T09:14:59;19.30;99.90
34279;DHT22;20538;51.528;9.942;2023-07-31T09:17:29;19.30;99.90
34279;DHT22;20538;51.528;9.942;2023-07-31T09:19:55;19.30;99.90
34279;DHT22;20538;51.528;9.942;2023-07-31T09:22:35;19.30;99.90
34279;DHT22;20538;51.528;9.942;2023-07-31T09:28:07;19.30;99.90
34279;DHT22;20538;51.528;9.942;2023-07-31T09:30:50;19.40;99.90
34279;DHT22;20538;51.528;9.942;2023-07-31T09:33:17;19.50;99.90
34279;DHT22;20538;51.528;9.942;2023-07-31T09:35:43;19.50;99.90
34279;DHT22;20538;51.528;9.942;2023-07-31T09:38:13;19.80;99.90
34279;DHT22;20538;51.528;9.942;2023-07-31T09:40:45;19.90;99.90
34279;DHT22;20538;51.528;9.942;2023-07-31T09:43:12;20.10;99.90
34279;DHT22;20538;51.528;9.942;2023-07-31T09:45:42;20.20;99.90
34279;DHT22;20538;51.528;9.942;2023-07-31T09:48:13;20.20;99.90
34279;DHT22;20538;51.528;9.942;2023-07-31T09:50:42;20.10;99.90
34279;DHT22;20538;51.528;9.942;2023-07-31T09:53:09;20.10;99.90
34279;DHT22;20538;51.528;9.942;2023-07-31T09:55:35;20.10;99.90
34279;DHT22;20538;51.528;9.942;2023-07-31T09:58:06;20.20;99.90
34279;DHT22;20538;51.528;9.942;2023-07-31T10:00:33;20.20;99.90
34279;DHT22;20538;51.528;9.942;2023-07-31T10:03:04;20.10;99.90
34279;DHT22;20538;51.528;9.942;2023-07-31T10:05:49;19.90;99.90
34279;DHT22;20538;51.528;9.942;2023-07-31T10:08:16;19.90;99.90
34279;DHT22;20538;51.528;9.942;2023-07-31T10:10:44;19.80;99.90
34279;DHT22;20538;51.528;9.942;2023-07-31T10:13:10;20.00;99.90
34279;DHT22;20538;51.528;9.942;2023-07-31T10:15:36;20.10;99.90
34279;DHT22;20538;51.528;9.942;2023-07-31T10:18:02;20.10;99.90
34279;DHT22;20538;51.528;9.942;2023-07-31T10:20:29;20.20;99.90
34279;DHT22;20538;51.528;9.942;2023-07-31T10:22:55;20.30;99.90
34279;DHT22;20538;51.528;9.942;2023-07-31T10:25:22;20.50;99.90
34279;DHT22;20538;51.528;9.942;2023-07-31T10:27:49;20.60;99.90
34279;DHT22;20538;51.528;9.942;2023-07-31T10:30:17;20.90;99.90
34279;DHT22;20538;51.528;9.942;2023-07-31T10:32:45;21.10;99.90
34279;DHT22;20538;51.528;9.942;2023-07-31T10:35:12;21.10;99.90
34279;DHT22;20538;51.528;9.942;2023-07-31T10:37:40;21.30;99.90
34279;DHT22;20538;51.528;9.942;2023-07-31T10:40:16;21.40;99.90
34279;DHT22;20538;51.528;9.942;2023-07-31T10:42:55;21.30;99.90
34279;DHT22;20538;51.528;9.942;2023-07-31T10:45:38;21.40;99.90
34279;DHT22;20538;51.528;9.942;2023-07-31T10:48:22;21.60;99.90
34279;DHT22;20538;51.528;9.942;2023-07-31T10:50:55;21.70;99.90
34279;DHT22;20538;51.528;9.942;2023-07-31T10:53:32;21.50;99.90
34279;DHT22;20538;51.528;9.942;2023-07-31T10:56:03;21.90;99.90
34279;DHT22;20538;51.528;9.942;2023-07-31T10:58:30;22.00;99.90
34279;DHT22;20538;51.528;9.942;2023-07-31T11:01:05;21.90;99.90
34279;DHT22;20538;51.528;9.942;2023-07-31T11:06:10;21.40;99.90
34279;DHT22;20538;51.528;9.942;2023-07-31T11:08:42;21.40;99.90
34279;DHT22;20538;51.528;9.942;2023-07-31T11:11:10;21.30;99.90
34279;DHT22;20538;51.528;9.942;2023-07-31T11:13:50;21.30;99.90
34279;DHT22;20538;51.528;9.942;2023-07-31T11:16:22;21.20;99.90
34279;DHT22;20538;51.528;9.942;2023-07-31T11:18:49;21.10;99.90
34279;DHT22;20538;51.528;9.942;2023-07-31T11:21:20;21.00;99.90
34279;DHT22;20538;51.528;9.942;2023-07-31T11:23:51;21.00;99.90
34279;DHT22;20538;51.528;9.942;2023-07-31T11:26:17;20.70;99.90
34279;DHT22;20538;51.528;9.942;2023-07-31T11:28:46;21.00;99.90
34279;DHT22;20538;51.528;9.942;2023-07-31T11:31:11;21.00;99.90
34279;DHT22;20538;51.528;9.942;2023-07-31T11:33:37;21.20;99.90
34279;DHT22;20538;51.528;9.942;2023-07-31T11:36:03;21.30;99.90
34279;DHT22;20538;51.528;9.942;2023-07-31T11:38:33;21.50;99.90
34279;DHT22;20538;51.528;9.942;2023-07-31T11:41:04;21.80;99.90
34279;DHT22;20538;51.528;9.942;2023-07-31T11:43:31;21.70;99.90
34279;DHT22;20538;51.528;9.942;2023-07-31T11:45:59;21.80;99.90
34279;DHT22;20538;51.528;9.942;2023-07-31T11:48:27;21.50;99.90
34279;DHT22;20538;51.528;9.942;2023-07-31T11:50:56;21.40;99.90
34279;DHT22;20538;51.528;9.942;2023-07-31T11:53:35;21.10;99.90
34279;DHT22;20538;51.528;9.942;2023-07-31T11:56:03;20.90;99.90
34279;DHT22;20538;51.528;9.942;2023-07-31T11:58:34;21.00;99.90
34279;DHT22;20538;51.528;9.942;2023-07-31T12:01:01;20.90;99.90
34279;DHT22;20538;51.528;9.942;2023-07-31T12:03:27;20.80;99.90
34279;DHT22;20538;51.528;9.942;2023-07-31T12:05:54;20.70;99.90
34279;DHT22;20538;51.528;9.942;2023-07-31T12:08:26;20.90;99.90
34279;DHT22;20538;51.528;9.942;2023-07-31T12:10:53;21.20;99.90
34279;DHT22;20538;51.528;9.942;2023-07-31T12:13:24;21.00;99.90
34279;DHT22;20538;51.528;9.942;2023-07-31T12:15:57;20.80;99.90
34279;DHT22;20538;51.528;9.942;2023-07-31T12:18:26;20.50;99.90
34279;DHT22;20538;51.528;9.942;2023-07-31T12:20:59;20.60;99.90
34279;DHT22;20538;51.528;9.942;2023-07-31T12:23:36;20.40;99.90
34279;DHT22;20538;51.528;9.942;2023-07-31T12:28:41;20.30;99.90
34279;DHT22;20538;51.528;9.942;2023-07-31T12:31:09;20.60;99.90
34279;DHT22;20538;51.528;9.942;2023-07-31T12:33:36;20.60;99.90
34279;DHT22;20538;51.528;9.942;2023-07-31T12:36:06;20.70;99.90
34279;DHT22;20538;51.528;9.942;2023-07-31T12:38:32;20.70;99.90
34279;DHT22;20538;51.528;9.942;2023-07-31T12:40:57;20.70;99.90
34279;DHT22;20538;51.528;9.942;2023-07-31T12:43:23;20.50;99.90
34279;DHT22;20538;51.528;9.942;2023-07-31T12:45:49;20.30;99.90
34279;DHT22;20538;51.528;9.942;2023-07-31T12:48:14;20.20;99.90
34279;DHT22;20538;51.528;9.942;2023-07-31T12:50:40;20.10;99.90
34279;DHT22;20538;51.528;9.942;2023-07-31T12:53:06;20.00;99.90
34279;DHT22;20538;51.528;9.942;2023-07-31T12:55:33;19.80;99.90
34279;DHT22;20538;51.528;9.942;2023-07-31T12:58:03;20.00;99.90
34279;DHT22;20538;51.528;9.942;2023-07-31T13:00:29;20.10;99.90
34279;DHT22;20538;51.528;9.942;2023-07-31T13:02:54;20.30;99.90
34279;DHT22;20538;51.528;9.942;2023-07-31T13:05:20;20.20;99.90
34279;DHT22;20538;51.528;9.942;2023-07-31T13:07:47;20.30;99.90
34279;DHT22;20538;51.528;9.942;2023-07-31T13:10:13;20.20;99.90
34279;DHT22;20538;51.528;9.942;2023-07-31T13:12:39;20.20;99.90
34279;DHT22;20538;51.528;9.942;2023-07-31T13:15:06;20.40;99.90
34279;DHT22;20538;51.528;9.942;2023-07-31T13:17:33;20.50;99.90
34279;DHT22;20538;51.528;9.942;2023-07-31T13:19:58;20.40;99.90
34279;DHT22;20538;51.528;9.942;2023-07-31T13:22:24;20.30;99.90
34279;DHT22;20538;51.528;9.942;2023-07-31T13:24:50;20.30;99.90
34279;DHT22;20538;51.528;9.942;2023-07-31T13:27:16;20.40;99.90
34279;DHT22;20538;51.528;9.942;2023-07-31T13:29:44;20.30;99.90
34279;DHT22;20538;51.528;9.942;2023-07-31T13:32:10;20.50;99.90
34279;DHT22;20538;51.528;9.942;2023-07-31T13:34:35;20.60;99.90
34279;DHT22;20538;51.528;9.942;2023-07-31T13:37:01;20.40;99.90
34279;DHT22;20538;51.528;9.942;2023-07-31T13:39:27;20.40;99.90
34279;DHT22;20538;51.528;9.942;2023-07-31T13:41:52;20.50;99.90
34279;DHT22;20538;51.528;9.942;2023-07-31T13:44:18;20.50;99.90
34279;DHT22;20538;51.528;9.942;2023-07-31T13:46:44;20.60;99.90
34279;DHT22;20538;51.528;9.942;2023-07-31T13:49:09;20.90;99.90
34279;DHT22;20538;51.528;9.942;2023-07-31T13:51:35;20.90;99.90
34279;DHT22;20538;51.528;9.942;2023-07-31T13:54:01;20.70;99.90
34279;DHT22;20538;51.528;9.942;2023-07-31T13:56:27;20.80;99.90
34279;DHT22;20538;51.528;9.942;2023-07-31T13:58:52;20.70;99.90
34279;DHT22;20538;51.528;9.942;2023-07-31T14:01:18;20.60;99.90
34279;DHT22;20538;51.528;9.942;2023-07-31T14:03:44;20.70;99.90
34279;DHT22;20538;51.528;9.942;2023-07-31T14:06:10;21.00;99.90
34279;DHT22;20538;51.528;9.942;2023-07-31T14:08:36;21.10;99.90
34279;DHT22;20538;51.528;9.942;2023-07-31T14:11:02;21.20;99.90
34279;DHT22;20538;51.528;9.942;2023-07-31T14:13:28;21.40;99.90
34279;DHT22;20538;51.528;9.942;2023-07-31T14:15:54;21.50;99.90
34279;DHT22;20538;51.528;9.942;2023-07-31T14:18:19;21.60;99.90
34279;DHT22;20538;51.528;9.942;2023-07-31T14:20:45;21.70;99.90
34279;DHT22;20538;51.528;9.942;2023-07-31T14:23:11;21.90;99.90
34279;DHT22;20538;51.528;9.942;2023-07-31T14:25:36;22.10;99.90
34279;DHT22;20538;51.528;9.942;2023-07-31T14:28:02;22.00;99.90
34279;DHT22;20538;51.528;9.942;2023-07-31T14:30:28;22.00;99.90
34279;DHT22;20538;51.528;9.942;2023-07-31T14:32:53;22.00;99.90
34279;DHT22;20538;51.528;9.942;2023-07-31T14:35:19;21.90;99.90
34279;DHT22;20538;51.528;9.942;2023-07-31T14:37:45;21.90;99.90
34279;DHT22;20538;51.528;9.942;2023-07-31T14:40:11;21.90;99.90
34279;DHT22;20538;51.528;9.942;2023-07-31T14:42:38;21.70;99.90
34279;DHT22;20538;51.528;9.942;2023-07-31T14:45:07;21.50;99.90
34279;DHT22;20538;51.528;9.942;2023-07-31T14:47:33;21.30;99.90
34279;DHT22;20538;51.528;9.942;2023-07-31T14:49:59;21.10;99.90
34279;DHT22;20538;51.528;9.942;2023-07-31T14:52:25;20.90;99.90
34279;DHT22;20538;51.528;9.942;2023-07-31T14:54:51;20.90;99.90
34279;DHT22;20538;51.528;9.942;2023-07-31T14:57:17;20.80;99.90
34279;DHT22;20538;51.528;9.942;2023-07-31T14:59:43;20.90;99.90
34279;DHT22;20538;51.528;9.942;2023-07-31T15:02:09;20.90;99.90
34279;DHT22;20538;51.528;9.942;2023-07-31T15:04:36;21.00;99.90
34279;DHT22;20538;51.528;9.942;2023-07-31T15:07:02;21.10;99.90
34279;DHT22;20538;51.528;9.942;2023-07-31T15:09:28;21.10;99.90
34279;DHT22;20538;51.528;9.942;2023-07-31T15:11:55;20.90;99.90
34279;DHT22;20538;51.528;9.942;2023-07-31T15:14:20;20.80;99.90
34279;DHT22;20538;51.528;9.942;2023-07-31T15:16:46;20.80;99.90
34279;DHT22;20538;51.528;9.942;2023-07-31T15:19:12;20.80;99.90
34279;DHT22;20538;51.528;9.942;2023-07-31T15:21:39;20.60;99.90
34279;DHT22;20538;51.528;9.942;2023-07-31T15:24:04;20.60;99.90
34279;DHT22;20538;51.528;9.942;2023-07-31T15:26:30;20.60;99.90
34279;DHT22;20538;51.528;9.942;2023-07-31T15:29:01;20.50;99.90
34279;DHT22;20538;51.528;9.942;2023-07-31T15:31:28;20.60;99.90
34279;DHT22;20538;51.528;9.942;2023-07-31T15:33:53;20.60;99.90
34279;DHT22;20538;51.528;9.942;2023-07-31T15:36:19;20.60;99.90
34279;DHT22;20538;51.528;9.942;2023-07-31T15:38:45;20.50;99.90
34279;DHT22;20538;51.528;9.942;2023-07-31T15:41:11;20.50;99.90